| Date | Time | Temp. (oF) | Dew Point (oF) | Rel. Hum. (%) | Press. (in.) | Wind Dir. | Wind Speed (mph) | Hourly Rainfall (in.) |
|
|---|---|---|---|---|---|---|---|---|---|
| 1 | 07/14 | 00:00 | 72 | 58 | 62 | 30.16 | S | 3 | 0.00 |
| 2 | 07/13 | 23:00 | 73 | 59 | 63 | 30.16 | E | 2 | 0.00 |
| 3 | 07/13 | 22:00 | 75 | 60 | 60 | 30.16 | SSE | 1 | 0.00 |
| 4 | 07/13 | 21:00 | 78 | 60 | 55 | 30.15 | S | 1 | 0.00 |
| 5 | 07/13 | 20:00 | 81 | 59 | 48 | 30.13 | SE | 2 | 0.00 |
| 6 | 07/13 | 19:00 | 83 | 58 | 44 | 30.13 | SSE | 3 | 0.00 |
| 7 | 07/13 | 18:00 | 85 | 58 | 41 | 30.14 | S | 5 | 0.00 |
| 8 | 07/13 | 17:00 | 85 | 57 | 39 | 30.16 | SSE | 5 | 0.00 |
| 9 | 07/13 | 16:00 | 87 | 60 | 41 | 30.17 | SSE | 11 | 0.00 |
| 10 | 07/13 | 15:00 | 86 | 55 | 36 | 30.18 | SSE | 6 | 0.00 |
| 11 | 07/13 | 14:00 | 85 | 59 | 42 | 30.20 | S | 3 | 0.00 |
| 12 | 07/13 | 13:00 | 84 | 58 | 43 | 30.21 | WSW | 4 | 0.00 |
| 13 | 07/13 | 12:00 | 82 | 58 | 46 | 30.22 | S | 2 | 0.00 |
| 14 | 07/13 | 11:00 | 81 | 58 | 47 | 30.23 | SSW | 2 | 0.00 |
| 15 | 07/13 | 10:00 | 78 | 61 | 57 | 30.23 | E | 7 | 0.00 |
| 16 | 07/13 | 09:00 | 73 | 65 | 78 | 30.23 | E | 3 | 0.00 |
| 17 | 07/13 | 08:00 | 68 | 64 | 88 | 30.24 | SSE | 1 | 0.00 |
| 18 | 07/13 | 07:00 | 65 | 61 | 89 | 30.22 | NNE | 0 | 0.00 |
| 19 | 07/13 | 06:00 | 65 | 60 | 86 | 30.22 | NNE | 1 | 0.00 |
| 20 | 07/13 | 05:00 | 66 | 59 | 81 | 30.21 | NNE | 0 | 0.00 |
| 21 | 07/13 | 04:00 | 68 | 60 | 76 | 30.19 | ENE | 1 | 0.00 |
| 22 | 07/13 | 03:00 | 69 | 58 | 70 | 30.20 | NE | 0 | 0.00 |
| 23 | 07/13 | 02:00 | 71 | 57 | 62 | 30.19 | ENE | 2 | 0.00 |
| 24 | 07/13 | 01:00 | 73 | 56 | 56 | 30.20 | SE | 1 | 0.00 |